sensor_id;sensor_type;location;lat;lon;timestamp;temperature;humidity
11087;DHT22;5597;47.588;9.642;2023-06-22T00:01:28;20.20;99.90
11087;DHT22;5597;47.588;9.642;2023-06-22T00:03:53;20.20;99.90
11087;DHT22;5597;47.588;9.642;2023-06-22T00:06:19;20.20;99.90
11087;DHT22;5597;47.588;9.642;2023-06-22T00:08:45;20.20;99.90
11087;DHT22;5597;47.588;9.642;2023-06-22T00:11:10;20.20;99.90
11087;DHT22;5597;47.588;9.642;2023-06-22T00:13:38;20.30;99.90
11087;DHT22;5597;47.588;9.642;2023-06-22T00:16:04;20.40;99.90
11087;DHT22;5597;47.588;9.642;2023-06-22T00:18:30;20.50;99.90
11087;DHT22;5597;47.588;9.642;2023-06-22T00:20:55;20.60;99.90
11087;DHT22;5597;47.588;9.642;2023-06-22T00:23:24;20.60;99.90
11087;DHT22;5597;47.588;9.642;2023-06-22T00:25:50;20.70;99.90
11087;DHT22;5597;47.588;9.642;2023-06-22T00:28:16;20.70;99.90
11087;DHT22;5597;47.588;9.642;2023-06-22T00:30:42;20.80;99.90
11087;DHT22;5597;47.588;9.642;2023-06-22T00:33:07;20.80;99.90
11087;DHT22;5597;47.588;9.642;2023-06-22T00:35:33;20.90;99.90
11087;DHT22;5597;47.588;9.642;2023-06-22T00:38:00;20.90;99.90
11087;DHT22;5597;47.588;9.642;2023-06-22T00:40:31;20.90;99.90
11087;DHT22;5597;47.588;9.642;2023-06-22T00:42:57;20.90;99.90
11087;DHT22;5597;47.588;9.642;2023-06-22T00:45:26;20.90;99.90
11087;DHT22;5597;47.588;9.642;2023-06-22T00:47:56;20.90;99.90
11087;DHT22;5597;47.588;9.642;2023-06-22T00:50:24;20.90;99.90
11087;DHT22;5597;47.588;9.642;2023-06-22T00:52:55;20.90;99.90
11087;DHT22;5597;47.588;9.642;2023-06-22T00:55:25;20.80;99.90
11087;DHT22;5597;47.588;9.642;2023-06-22T00:57:52;20.70;99.90
11087;DHT22;5597;47.588;9.642;2023-06-22T01:00:23;20.70;99.90
11087;DHT22;5597;47.588;9.642;2023-06-22T01:02:50;20.70;99.90
11087;DHT22;5597;47.588;9.642;2023-06-22T01:05:18;20.70;99.90
11087;DHT22;5597;47.588;9.642;2023-06-22T01:10:33;20.60;99.90
11087;DHT22;5597;47.588;9.642;2023-06-22T01:16:05;20.50;99.90
11087;DHT22;5597;47.588;9.642;2023-06-22T01:18:35;20.50;99.90
11087;DHT22;5597;47.588;9.642;2023-06-22T01:21:03;20.50;99.90
11087;DHT22;5597;47.588;9.642;2023-06-22T01:26:25;20.40;99.90
11087;DHT22;5597;47.588;9.642;2023-06-22T01:28:57;20.30;99.90
11087;DHT22;5597;47.588;9.642;2023-06-22T01:31:25;20.20;99.90
11087;DHT22;5597;47.588;9.642;2023-06-22T01:33:55;20.20;99.90
11087;DHT22;5597;47.588;9.642;2023-06-22T01:36:22;20.10;99.90
11087;DHT22;5597;47.588;9.642;2023-06-22T01:38:49;20.00;99.90
11087;DHT22;5597;47.588;9.642;2023-06-22T01:41:16;20.00;99.90
11087;DHT22;5597;47.588;9.642;2023-06-22T01:43:43;19.90;99.90
11087;DHT22;5597;47.588;9.642;2023-06-22T01:46:10;19.90;99.90
11087;DHT22;5597;47.588;9.642;2023-06-22T01:48:37;19.90;99.90
11087;DHT22;5597;47.588;9.642;2023-06-22T01:51:04;19.80;99.90
11087;DHT22;5597;47.588;9.642;2023-06-22T01:53:30;19.70;99.90
11087;DHT22;5597;47.588;9.642;2023-06-22T01:55:56;19.50;99.90
11087;DHT22;5597;47.588;9.642;2023-06-22T01:58:27;19.40;99.90
11087;DHT22;5597;47.588;9.642;2023-06-22T02:01:09;19.40;99.90
11087;DHT22;5597;47.588;9.642;2023-06-22T02:03:41;19.20;99.90
11087;DHT22;5597;47.588;9.642;2023-06-22T02:06:17;19.10;99.90
11087;DHT22;5597;47.588;9.642;2023-06-22T02:08:57;19.00;99.90
11087;DHT22;5597;47.588;9.642;2023-06-22T02:11:25;18.90;99.90
11087;DHT22;5597;47.588;9.642;2023-06-22T02:13:52;18.80;99.90
11087;DHT22;5597;47.588;9.642;2023-06-22T02:16:19;18.80;99.90
11087;DHT22;5597;47.588;9.642;2023-06-22T02:18:49;18.80;99.90
11087;DHT22;5597;47.588;9.642;2023-06-22T02:21:18;18.80;99.90
11087;DHT22;5597;47.588;9.642;2023-06-22T02:23:44;18.80;99.90
11087;DHT22;5597;47.588;9.642;2023-06-22T02:26:10;18.70;99.90
11087;DHT22;5597;47.588;9.642;2023-06-22T02:28:36;18.70;99.90
11087;DHT22;5597;47.588;9.642;2023-06-22T02:31:01;18.70;99.90
11087;DHT22;5597;47.588;9.642;2023-06-22T02:33:27;18.60;99.90
11087;DHT22;5597;47.588;9.642;2023-06-22T02:35:53;18.60;99.90
11087;DHT22;5597;47.588;9.642;2023-06-22T02:38:19;18.60;99.90
11087;DHT22;5597;47.588;9.642;2023-06-22T02:40:45;18.50;99.90
11087;DHT22;5597;47.588;9.642;2023-06-22T02:43:12;18.50;99.90
11087;DHT22;5597;47.588;9.642;2023-06-22T02:45:38;18.50;99.90
11087;DHT22;5597;47.588;9.642;2023-06-22T02:48:04;18.40;99.90
11087;DHT22;5597;47.588;9.642;2023-06-22T02:50:30;18.40;99.90
11087;DHT22;5597;47.588;9.642;2023-06-22T02:52:56;18.30;99.90
11087;DHT22;5597;47.588;9.642;2023-06-22T02:55:21;18.20;99.90
11087;DHT22;5597;47.588;9.642;2023-06-22T02:57:47;18.20;99.90
11087;DHT22;5597;47.588;9.642;2023-06-22T03:00:14;18.20;99.90
11087;DHT22;5597;47.588;9.642;2023-06-22T03:02:44;18.20;99.90
11087;DHT22;5597;47.588;9.642;2023-06-22T03:05:10;18.20;99.90
11087;DHT22;5597;47.588;9.642;2023-06-22T03:07:42;18.10;99.90
11087;DHT22;5597;47.588;9.642;2023-06-22T03:10:11;18.10;99.90
11087;DHT22;5597;47.588;9.642;2023-06-22T03:12:38;18.00;99.90
11087;DHT22;5597;47.588;9.642;2023-06-22T03:15:09;18.00;99.90
11087;DHT22;5597;47.588;9.642;2023-06-22T03:17:35;18.00;99.90
11087;DHT22;5597;47.588;9.642;2023-06-22T03:20:02;18.00;99.90
11087;DHT22;5597;47.588;9.642;2023-06-22T03:22:35;18.00;99.90
11087;DHT22;5597;47.588;9.642;2023-06-22T03:25:01;18.10;99.90
11087;DHT22;5597;47.588;9.642;2023-06-22T03:27:27;18.20;99.90
11087;DHT22;5597;47.588;9.642;2023-06-22T03:29:52;18.20;99.90
11087;DHT22;5597;47.588;9.642;2023-06-22T03:32:18;18.30;99.90
11087;DHT22;5597;47.588;9.642;2023-06-22T03:34:44;18.20;99.90
11087;DHT22;5597;47.588;9.642;2023-06-22T03:37:15;18.10;99.90
11087;DHT22;5597;47.588;9.642;2023-06-22T03:39:43;18.10;99.90
11087;DHT22;5597;47.588;9.642;2023-06-22T03:42:12;18.00;99.90
11087;DHT22;5597;47.588;9.642;2023-06-22T03:44:37;18.00;99.90
11087;DHT22;5597;47.588;9.642;2023-06-22T03:47:04;18.00;99.90
11087;DHT22;5597;47.588;9.642;2023-06-22T03:49:30;18.00;99.90
11087;DHT22;5597;47.588;9.642;2023-06-22T03:51:56;18.00;99.90
11087;DHT22;5597;47.588;9.642;2023-06-22T03:54:21;18.00;99.90
11087;DHT22;5597;47.588;9.642;2023-06-22T03:56:47;17.90;99.90
11087;DHT22;5597;47.588;9.642;2023-06-22T03:59:12;17.90;99.90
11087;DHT22;5597;47.588;9.642;2023-06-22T04:01:38;17.80;99.90
11087;DHT22;5597;47.588;9.642;2023-06-22T04:04:04;17.80;99.90
11087;DHT22;5597;47.588;9.642;2023-06-22T04:06:29;17.80;99.90
11087;DHT22;5597;47.588;9.642;2023-06-22T04:08:55;17.80;99.90
11087;DHT22;5597;47.588;9.642;2023-06-22T04:11:21;17.90;99.90
11087;DHT22;5597;47.588;9.642;2023-06-22T04:13:47;17.90;99.90
11087;DHT22;5597;47.588;9.642;2023-06-22T04:16:14;17.90;99.90
11087;DHT22;5597;47.588;9.642;2023-06-22T04:18:39;17.90;99.90
11087;DHT22;5597;47.588;9.642;2023-06-22T04:21:05;17.90;99.90
11087;DHT22;5597;47.588;9.642;2023-06-22T04:23:31;18.00;99.90
11087;DHT22;5597;47.588;9.642;2023-06-22T04:25:56;18.00;99.90
11087;DHT22;5597;47.588;9.642;2023-06-22T04:28:23;18.00;99.90
11087;DHT22;5597;47.588;9.642;2023-06-22T04:30:49;18.00;99.90
11087;DHT22;5597;47.588;9.642;2023-06-22T04:33:16;18.10;99.90
11087;DHT22;5597;47.588;9.642;2023-06-22T04:35:44;18.10;99.90
11087;DHT22;5597;47.588;9.642;2023-06-22T04:38:12;18.10;99.90
11087;DHT22;5597;47.588;9.642;2023-06-22T04:40:39;18.10;99.90
11087;DHT22;5597;47.588;9.642;2023-06-22T04:43:04;18.20;99.90
11087;DHT22;5597;47.588;9.642;2023-06-22T04:45:32;18.20;99.90
11087;DHT22;5597;47.588;9.642;2023-06-22T04:47:58;18.30;99.90
11087;DHT22;5597;47.588;9.642;2023-06-22T04:50:24;18.40;99.90
11087;DHT22;5597;47.588;9.642;2023-06-22T04:52:50;18.50;99.90
11087;DHT22;5597;47.588;9.642;2023-06-22T04:55:16;18.60;99.90
11087;DHT22;5597;47.588;9.642;2023-06-22T04:57:44;18.70;99.90
11087;DHT22;5597;47.588;9.642;2023-06-22T05:00:18;18.90;99.90
11087;DHT22;5597;47.588;9.642;2023-06-22T05:02:48;19.00;99.90
11087;DHT22;5597;47.588;9.642;2023-06-22T05:05:15;19.20;99.90
11087;DHT22;5597;47.588;9.642;2023-06-22T05:07:45;19.30;99.90
11087;DHT22;5597;47.588;9.642;2023-06-22T05:10:13;19.50;99.90
11087;DHT22;5597;47.588;9.642;2023-06-22T05:12:39;19.60;99.90
11087;DHT22;5597;47.588;9.642;2023-06-22T05:15:14;19.60;99.90
11087;DHT22;5597;47.588;9.642;2023-06-22T05:17:40;19.70;99.90
11087;DHT22;5597;47.588;9.642;2023-06-22T05:20:09;19.80;99.90
11087;DHT22;5597;47.588;9.642;2023-06-22T05:22:35;19.90;99.90
11087;DHT22;5597;47.588;9.642;2023-06-22T05:25:01;19.90;99.90
11087;DHT22;5597;47.588;9.642;2023-06-22T05:27:27;20.00;99.90
11087;DHT22;5597;47.588;9.642;2023-06-22T05:29:52;20.20;99.90
11087;DHT22;5597;47.588;9.642;2023-06-22T05:32:18;20.30;99.90
11087;DHT22;5597;47.588;9.642;2023-06-22T05:34:44;20.40;99.90
11087;DHT22;5597;47.588;9.642;2023-06-22T05:37:10;20.50;99.90
11087;DHT22;5597;47.588;9.642;2023-06-22T05:39:36;20.60;99.90
11087;DHT22;5597;47.588;9.642;2023-06-22T05:42:07;20.70;99.90
11087;DHT22;5597;47.588;9.642;2023-06-22T05:44:33;20.80;99.90
11087;DHT22;5597;47.588;9.642;2023-06-22T05:46:59;20.90;99.90
11087;DHT22;5597;47.588;9.642;2023-06-22T05:49:25;21.00;99.90
11087;DHT22;5597;47.588;9.642;2023-06-22T05:51:55;21.10;99.90
11087;DHT22;5597;47.588;9.642;2023-06-22T05:54:22;21.30;99.90
11087;DHT22;5597;47.588;9.642;2023-06-22T05:56:48;21.40;99.90
11087;DHT22;5597;47.588;9.642;2023-06-22T05:59:13;21.50;99.90
11087;DHT22;5597;47.588;9.642;2023-06-22T06:01:39;21.50;99.90
11087;DHT22;5597;47.588;9.642;2023-06-22T06:04:06;21.60;99.90
11087;DHT22;5597;47.588;9.642;2023-06-22T06:06:33;21.70;99.90
11087;DHT22;5597;47.588;9.642;2023-06-22T06:09:00;21.90;99.90
11087;DHT22;5597;47.588;9.642;2023-06-22T06:11:26;22.00;99.90
11087;DHT22;5597;47.588;9.642;2023-06-22T06:13:52;22.20;99.90
11087;DHT22;5597;47.588;9.642;2023-06-22T06:16:17;22.30;99.90
11087;DHT22;5597;47.588;9.642;2023-06-22T06:18:43;22.40;99.90
11087;DHT22;5597;47.588;9.642;2023-06-22T06:21:08;22.60;99.90
11087;DHT22;5597;47.588;9.642;2023-06-22T06:23:34;22.70;99.90
11087;DHT22;5597;47.588;9.642;2023-06-22T06:26:00;22.90;99.90
11087;DHT22;5597;47.588;9.642;2023-06-22T06:28:26;23.00;99.90
11087;DHT22;5597;47.588;9.642;2023-06-22T06:30:52;23.20;99.90
11087;DHT22;5597;47.588;9.642;2023-06-22T06:33:18;23.40;99.90
11087;DHT22;5597;47.588;9.642;2023-06-22T06:35:44;23.50;99.90
11087;DHT22;5597;47.588;9.642;2023-06-22T06:38:10;23.60;99.90
11087;DHT22;5597;47.588;9.642;2023-06-22T06:40:36;23.70;99.90
11087;DHT22;5597;47.588;9.642;2023-06-22T06:43:01;23.90;99.90
11087;DHT22;5597;47.588;9.642;2023-06-22T06:45:27;24.10;99.90
11087;DHT22;5597;47.588;9.642;2023-06-22T06:47:54;24.30;99.90
11087;DHT22;5597;47.588;9.642;2023-06-22T06:50:20;24.50;99.90
11087;DHT22;5597;47.588;9.642;2023-06-22T06:52:45;24.60;99.90
11087;DHT22;5597;47.588;9.642;2023-06-22T06:55:11;24.70;99.90
11087;DHT22;5597;47.588;9.642;2023-06-22T06:57:41;24.80;99.90
11087;DHT22;5597;47.588;9.642;2023-06-22T07:00:10;24.90;99.90
11087;DHT22;5597;47.588;9.642;2023-06-22T07:02:41;25.00;99.90
11087;DHT22;5597;47.588;9.642;2023-06-22T07:05:08;25.10;99.90
11087;DHT22;5597;47.588;9.642;2023-06-22T07:07:34;25.20;99.90
11087;DHT22;5597;47.588;9.642;2023-06-22T07:10:00;25.30;99.90
11087;DHT22;5597;47.588;9.642;2023-06-22T07:12:26;25.40;99.90
11087;DHT22;5597;47.588;9.642;2023-06-22T07:14:52;25.50;99.90
11087;DHT22;5597;47.588;9.642;2023-06-22T07:17:18;25.70;99.90
11087;DHT22;5597;47.588;9.642;2023-06-22T07:19:53;25.80;99.90
11087;DHT22;5597;47.588;9.642;2023-06-22T07:22:18;25.90;99.90
11087;DHT22;5597;47.588;9.642;2023-06-22T07:24:44;26.00;99.90
11087;DHT22;5597;47.588;9.642;2023-06-22T07:27:09;26.00;99.90
11087;DHT22;5597;47.588;9.642;2023-06-22T07:29:37;26.10;99.90
11087;DHT22;5597;47.588;9.642;2023-06-22T07:32:06;26.20;99.90
11087;DHT22;5597;47.588;9.642;2023-06-22T07:34:31;26.20;99.90
11087;DHT22;5597;47.588;9.642;2023-06-22T07:36:58;26.00;99.90
11087;DHT22;5597;47.588;9.642;2023-06-22T07:39:24;25.90;99.90
11087;DHT22;5597;47.588;9.642;2023-06-22T07:41:52;25.80;99.90
11087;DHT22;5597;47.588;9.642;2023-06-22T07:44:17;25.70;99.90
11087;DHT22;5597;47.588;9.642;2023-06-22T07:46:43;25.70;99.90
11087;DHT22;5597;47.588;9.642;2023-06-22T07:49:09;25.70;99.90
11087;DHT22;5597;47.588;9.642;2023-06-22T07:51:37;25.70;99.90
11087;DHT22;5597;47.588;9.642;2023-06-22T07:54:03;25.70;99.90
11087;DHT22;5597;47.588;9.642;2023-06-22T07:56:29;25.70;99.90
11087;DHT22;5597;47.588;9.642;2023-06-22T07:58:54;25.90;99.90
11087;DHT22;5597;47.588;9.642;2023-06-22T08:01:23;26.00;99.90
11087;DHT22;5597;47.588;9.642;2023-06-22T08:03:49;26.10;99.90
11087;DHT22;5597;47.588;9.642;2023-06-22T08:06:15;26.30;99.90
11087;DHT22;5597;47.588;9.642;2023-06-22T08:08:41;26.40;99.90
11087;DHT22;5597;47.588;9.642;2023-06-22T08:11:08;26.50;99.90
11087;DHT22;5597;47.588;9.642;2023-06-22T08:13:34;26.60;99.90
11087;DHT22;5597;47.588;9.642;2023-06-22T08:16:00;26.70;99.90
11087;DHT22;5597;47.588;9.642;2023-06-22T08:18:25;26.90;99.90
11087;DHT22;5597;47.588;9.642;2023-06-22T08:20:51;27.20;99.90
11087;DHT22;5597;47.588;9.642;2023-06-22T08:23:17;27.30;99.90
11087;DHT22;5597;47.588;9.642;2023-06-22T08:25:42;27.40;99.90
11087;DHT22;5597;47.588;9.642;2023-06-22T08:28:08;27.50;99.90
11087;DHT22;5597;47.588;9.642;2023-06-22T08:30:34;27.40;99.90
11087;DHT22;5597;47.588;9.642;2023-06-22T08:32:59;27.30;99.90
11087;DHT22;5597;47.588;9.642;2023-06-22T08:35:25;27.10;99.90
11087;DHT22;5597;47.588;9.642;2023-06-22T08:37:55;27.10;99.90
11087;DHT22;5597;47.588;9.642;2023-06-22T08:40:22;27.00;99.90
11087;DHT22;5597;47.588;9.642;2023-06-22T08:42:48;26.80;99.90
11087;DHT22;5597;47.588;9.642;2023-06-22T08:45:15;26.50;99.90
11087;DHT22;5597;47.588;9.642;2023-06-22T08:47:41;26.20;99.90
11087;DHT22;5597;47.588;9.642;2023-06-22T08:50:08;26.00;99.90
11087;DHT22;5597;47.588;9.642;2023-06-22T08:52:34;25.80;99.90
11087;DHT22;5597;47.588;9.642;2023-06-22T08:55:00;25.80;99.90
11087;DHT22;5597;47.588;9.642;2023-06-22T08:57:26;25.80;99.90
11087;DHT22;5597;47.588;9.642;2023-06-22T08:59:52;25.90;99.90
11087;DHT22;5597;47.588;9.642;2023-06-22T09:02:19;26.00;99.90
11087;DHT22;5597;47.588;9.642;2023-06-22T09:04:46;26.00;99.90
11087;DHT22;5597;47.588;9.642;2023-06-22T09:07:11;26.20;99.90
11087;DHT22;5597;47.588;9.642;2023-06-22T09:09:37;26.30;99.90
11087;DHT22;5597;47.588;9.642;2023-06-22T09:12:03;26.50;99.90
11087;DHT22;5597;47.588;9.642;2023-06-22T09:14:29;26.70;99.90
11087;DHT22;5597;47.588;9.642;2023-06-22T09:16:55;26.90;99.90
11087;DHT22;5597;47.588;9.642;2023-06-22T09:19:21;27.10;99.90
11087;DHT22;5597;47.588;9.642;2023-06-22T09:21:46;27.20;99.90
11087;DHT22;5597;47.588;9.642;2023-06-22T09:24:12;27.30;99.90
11087;DHT22;5597;47.588;9.642;2023-06-22T09:26:38;27.30;99.90
11087;DHT22;5597;47.588;9.642;2023-06-22T09:29:05;27.50;99.90
11087;DHT22;5597;47.588;9.642;2023-06-22T09:31:31;27.70;99.90
11087;DHT22;5597;47.588;9.642;2023-06-22T09:33:57;27.90;99.90
11087;DHT22;5597;47.588;9.642;2023-06-22T09:36:23;28.10;99.90
11087;DHT22;5597;47.588;9.642;2023-06-22T09:38:49;28.30;99.90
11087;DHT22;5597;47.588;9.642;2023-06-22T09:41:20;28.50;99.90
11087;DHT22;5597;47.588;9.642;2023-06-22T09:43:46;28.60;99.90
11087;DHT22;5597;47.588;9.642;2023-06-22T09:46:12;28.50;99.90
11087;DHT22;5597;47.588;9.642;2023-06-22T09:48:38;28.50;99.90
11087;DHT22;5597;47.588;9.642;2023-06-22T09:51:04;28.50;99.90
11087;DHT22;5597;47.588;9.642;2023-06-22T09:53:29;28.60;99.90
11087;DHT22;5597;47.588;9.642;2023-06-22T09:55:55;28.60;99.90
11087;DHT22;5597;47.588;9.642;2023-06-22T09:58:20;28.60;99.90
11087;DHT22;5597;47.588;9.642;2023-06-22T10:00:46;28.60;99.90
11087;DHT22;5597;47.588;9.642;2023-06-22T10:03:12;28.80;99.90
11087;DHT22;5597;47.588;9.642;2023-06-22T10:05:37;28.80;99.90
11087;DHT22;5597;47.588;9.642;2023-06-22T10:08:03;29.00;99.90
11087;DHT22;5597;47.588;9.642;2023-06-22T10:10:29;29.20;99.90
11087;DHT22;5597;47.588;9.642;2023-06-22T10:13:06;29.40;99.90
11087;DHT22;5597;47.588;9.642;2023-06-22T10:15:32;29.60;99.90
11087;DHT22;5597;47.588;9.642;2023-06-22T10:17:58;29.90;99.90
11087;DHT22;5597;47.588;9.642;2023-06-22T10:20:23;30.20;99.90
11087;DHT22;5597;47.588;9.642;2023-06-22T10:22:51;30.40;99.90
11087;DHT22;5597;47.588;9.642;2023-06-22T10:25:16;30.50;99.90
11087;DHT22;5597;47.588;9.642;2023-06-22T10:27:42;30.50;99.90
11087;DHT22;5597;47.588;9.642;2023-06-22T10:30:09;30.40;99.90
11087;DHT22;5597;47.588;9.642;2023-06-22T10:32:37;30.30;99.90
11087;DHT22;5597;47.588;9.642;2023-06-22T10:35:11;30.30;99.90
11087;DHT22;5597;47.588;9.642;2023-06-22T10:37:39;30.50;99.90
11087;DHT22;5597;47.588;9.642;2023-06-22T10:40:05;30.70;99.90
11087;DHT22;5597;47.588;9.642;2023-06-22T10:42:31;30.80;99.90
11087;DHT22;5597;47.588;9.642;2023-06-22T10:44:56;31.10;99.90
11087;DHT22;5597;47.588;9.642;2023-06-22T10:47:22;31.50;99.90
11087;DHT22;5597;47.588;9.642;2023-06-22T10:49:48;31.70;99.90
11087;DHT22;5597;47.588;9.642;2023-06-22T10:52:13;31.60;99.90
11087;DHT22;5597;47.588;9.642;2023-06-22T10:54:39;31.50;99.90
11087;DHT22;5597;47.588;9.642;2023-06-22T10:57:05;31.50;99.90
11087;DHT22;5597;47.588;9.642;2023-06-22T10:59:31;31.40;99.90
11087;DHT22;5597;47.588;9.642;2023-06-22T11:01:56;31.30;99.90
11087;DHT22;5597;47.588;9.642;2023-06-22T11:04:23;31.20;99.90
11087;DHT22;5597;47.588;9.642;2023-06-22T11:06:49;31.20;99.90
11087;DHT22;5597;47.588;9.642;2023-06-22T11:09:16;31.10;99.90
11087;DHT22;5597;47.588;9.642;2023-06-22T11:11:51;31.20;99.90
11087;DHT22;5597;47.588;9.642;2023-06-22T11:14:19;31.30;99.90
11087;DHT22;5597;47.588;9.642;2023-06-22T11:16:44;31.70;99.90
11087;DHT22;5597;47.588;9.642;2023-06-22T11:19:11;32.00;99.90
11087;DHT22;5597;47.588;9.642;2023-06-22T11:21:37;32.40;99.90
11087;DHT22;5597;47.588;9.642;2023-06-22T11:24:03;32.70;99.90
11087;DHT22;5597;47.588;9.642;2023-06-22T11:26:29;33.00;99.90
11087;DHT22;5597;47.588;9.642;2023-06-22T11:28:55;33.00;99.90
11087;DHT22;5597;47.588;9.642;2023-06-22T11:31:21;33.10;99.90
11087;DHT22;5597;47.588;9.642;2023-06-22T11:33:46;33.10;99.90
11087;DHT22;5597;47.588;9.642;2023-06-22T11:36:13;33.00;99.90
11087;DHT22;5597;47.588;9.642;2023-06-22T11:38:39;32.90;99.90
11087;DHT22;5597;47.588;9.642;2023-06-22T11:41:06;32.80;99.90
11087;DHT22;5597;47.588;9.642;2023-06-22T11:43:32;32.70;99.90
11087;DHT22;5597;47.588;9.642;2023-06-22T11:45:57;32.70;99.90
11087;DHT22;5597;47.588;9.642;2023-06-22T11:48:26;32.60;99.90
11087;DHT22;5597;47.588;9.642;2023-06-22T11:50:52;32.50;99.90
11087;DHT22;5597;47.588;9.642;2023-06-22T11:53:18;32.30;99.90
11087;DHT22;5597;47.588;9.642;2023-06-22T11:55:53;32.20;99.90
11087;DHT22;5597;47.588;9.642;2023-06-22T11:58:19;32.00;99.90
11087;DHT22;5597;47.588;9.642;2023-06-22T12:00:45;31.90;99.90
11087;DHT22;5597;47.588;9.642;2023-06-22T12:03:11;31.80;99.90
11087;DHT22;5597;47.588;9.642;2023-06-22T12:05:38;31.70;99.90
11087;DHT22;5597;47.588;9.642;2023-06-22T12:08:03;31.80;99.90
11087;DHT22;5597;47.588;9.642;2023-06-22T12:10:29;31.90;99.90
11087;DHT22;5597;47.588;9.642;2023-06-22T12:12:55;31.80;99.90
11087;DHT22;5597;47.588;9.642;2023-06-22T12:15:20;31.80;99.90
11087;DHT22;5597;47.588;9.642;2023-06-22T12:17:46;31.80;99.90
11087;DHT22;5597;47.588;9.642;2023-06-22T12:20:13;31.70;99.90
11087;DHT22;5597;47.588;9.642;2023-06-22T12:22:40;31.70;99.90
11087;DHT22;5597;47.588;9.642;2023-06-22T12:25:07;31.60;99.90
11087;DHT22;5597;47.588;9.642;2023-06-22T12:27:33;31.50;99.90
11087;DHT22;5597;47.588;9.642;2023-06-22T12:29:58;31.50;99.90
11087;DHT22;5597;47.588;9.642;2023-06-22T12:32:24;31.40;99.90
11087;DHT22;5597;47.588;9.642;2023-06-22T12:34:51;31.20;99.90
11087;DHT22;5597;47.588;9.642;2023-06-22T12:37:16;30.90;99.90
11087;DHT22;5597;47.588;9.642;2023-06-22T12:39:43;30.80;99.90
11087;DHT22;5597;47.588;9.642;2023-06-22T12:42:09;30.80;99.90
11087;DHT22;5597;47.588;9.642;2023-06-22T12:44:38;30.80;99.90
11087;DHT22;5597;47.588;9.642;2023-06-22T12:47:04;30.90;99.90
11087;DHT22;5597;47.588;9.642;2023-06-22T12:49:29;31.00;99.90
11087;DHT22;5597;47.588;9.642;2023-06-22T12:51:55;31.10;99.90
11087;DHT22;5597;47.588;9.642;2023-06-22T12:54:21;31.10;99.90
11087;DHT22;5597;47.588;9.642;2023-06-22T12:56:46;31.20;99.90
11087;DHT22;5597;47.588;9.642;2023-06-22T12:59:12;31.20;99.90
11087;DHT22;5597;47.588;9.642;2023-06-22T13:01:38;31.20;99.90
11087;DHT22;5597;47.588;9.642;2023-06-22T13:04:04;31.30;99.90
11087;DHT22;5597;47.588;9.642;2023-06-22T13:06:30;31.10;99.90
11087;DHT22;5597;47.588;9.642;2023-06-22T13:08:56;31.00;99.90
11087;DHT22;5597;47.588;9.642;2023-06-22T13:11:22;30.80;99.90
11087;DHT22;5597;47.588;9.642;2023-06-22T13:13:47;30.50;99.90
11087;DHT22;5597;47.588;9.642;2023-06-22T13:16:13;30.40;99.90
11087;DHT22;5597;47.588;9.642;2023-06-22T13:18:39;30.60;99.90
11087;DHT22;5597;47.588;9.642;2023-06-22T13:21:05;30.90;99.90
11087;DHT22;5597;47.588;9.642;2023-06-22T13:23:30;31.10;99.90
11087;DHT22;5597;47.588;9.642;2023-06-22T13:25:58;31.50;99.90
11087;DHT22;5597;47.588;9.642;2023-06-22T13:28:23;31.80;99.90
11087;DHT22;5597;47.588;9.642;2023-06-22T13:30:49;31.90;99.90
11087;DHT22;5597;47.588;9.642;2023-06-22T13:33:15;32.00;99.90
11087;DHT22;5597;47.588;9.642;2023-06-22T13:35:40;32.10;99.90
11087;DHT22;5597;47.588;9.642;2023-06-22T13:38:08;32.30;99.90
11087;DHT22;5597;47.588;9.642;2023-06-22T13:40:34;32.70;99.90
11087;DHT22;5597;47.588;9.642;2023-06-22T13:43:00;33.20;99.90
11087;DHT22;5597;47.588;9.642;2023-06-22T13:45:26;33.60;99.90
11087;DHT22;5597;47.588;9.642;2023-06-22T13:47:52;34.00;99.90
11087;DHT22;5597;47.588;9.642;2023-06-22T13:50:18;34.30;99.90
11087;DHT22;5597;47.588;9.642;2023-06-22T13:52:43;34.40;99.50
11087;DHT22;5597;47.588;9.642;2023-06-22T13:55:09;34.50;99.20
11087;DHT22;5597;47.588;9.642;2023-06-22T13:57:36;34.70;99.90
11087;DHT22;5597;47.588;9.642;2023-06-22T14:00:04;35.00;99.60
11087;DHT22;5597;47.588;9.642;2023-06-22T14:02:31;35.20;98.10
11087;DHT22;5597;47.588;9.642;2023-06-22T14:04:56;35.30;97.60
11087;DHT22;5597;47.588;9.642;2023-06-22T14:07:22;35.40;98.00
11087;DHT22;5597;47.588;9.642;2023-06-22T14:09:50;35.60;97.90
11087;DHT22;5597;47.588;9.642;2023-06-22T14:12:15;35.70;96.80
11087;DHT22;5597;47.588;9.642;2023-06-22T14:14:43;35.60;97.10
11087;DHT22;5597;47.588;9.642;2023-06-22T14:17:08;35.60;96.60
11087;DHT22;5597;47.588;9.642;2023-06-22T14:19:34;35.40;96.00
11087;DHT22;5597;47.588;9.642;2023-06-22T14:22:00;35.20;97.00
11087;DHT22;5597;47.588;9.642;2023-06-22T14:24:25;35.10;97.00
11087;DHT22;5597;47.588;9.642;2023-06-22T14:26:51;35.20;96.40
11087;DHT22;5597;47.588;9.642;2023-06-22T14:29:17;35.00;96.40
11087;DHT22;5597;47.588;9.642;2023-06-22T14:31:45;35.00;96.30
11087;DHT22;5597;47.588;9.642;2023-06-22T14:34:11;34.80;96.20
11087;DHT22;5597;47.588;9.642;2023-06-22T14:36:36;34.80;96.90
11087;DHT22;5597;47.588;9.642;2023-06-22T14:39:02;34.80;97.20
11087;DHT22;5597;47.588;9.642;2023-06-22T14:41:29;34.70;96.90
11087;DHT22;5597;47.588;9.642;2023-06-22T14:43:55;34.50;96.70
11087;DHT22;5597;47.588;9.642;2023-06-22T14:46:21;34.50;96.60
11087;DHT22;5597;47.588;9.642;2023-06-22T14:48:47;34.30;96.50
11087;DHT22;5597;47.588;9.642;2023-06-22T14:51:12;34.00;97.10
11087;DHT22;5597;47.588;9.642;2023-06-22T14:53:38;33.70;97.40
11087;DHT22;5597;47.588;9.642;2023-06-22T14:56:04;33.40;97.80
11087;DHT22;5597;47.588;9.642;2023-06-22T14:58:33;33.10;98.20
11087;DHT22;5597;47.588;9.642;2023-06-22T15:01:00;32.80;99.00
11087;DHT22;5597;47.588;9.642;2023-06-22T15:03:26;32.60;98.60
11087;DHT22;5597;47.588;9.642;2023-06-22T15:05:54;32.20;98.60
11087;DHT22;5597;47.588;9.642;2023-06-22T15:08:21;31.90;99.20
11087;DHT22;5597;47.588;9.642;2023-06-22T15:10:46;31.70;99.40
11087;DHT22;5597;47.588;9.642;2023-06-22T15:13:12;31.80;99.90
11087;DHT22;5597;47.588;9.642;2023-06-22T15:15:38;31.90;99.90
11087;DHT22;5597;47.588;9.642;2023-06-22T15:18:03;32.00;99.90
11087;DHT22;5597;47.588;9.642;2023-06-22T15:20:29;32.10;99.90
11087;DHT22;5597;47.588;9.642;2023-06-22T15:22:56;32.20;99.90
11087;DHT22;5597;47.588;9.642;2023-06-22T15:25:22;32.20;99.90
11087;DHT22;5597;47.588;9.642;2023-06-22T15:27:47;32.10;99.90
11087;DHT22;5597;47.588;9.642;2023-06-22T15:30:13;32.10;99.90
11087;DHT22;5597;47.588;9.642;2023-06-22T15:32:41;31.90;99.90
11087;DHT22;5597;47.588;9.642;2023-06-22T15:35:08;31.60;99.90
11087;DHT22;5597;47.588;9.642;2023-06-22T15:37:34;31.30;99.90
11087;DHT22;5597;47.588;9.642;2023-06-22T15:39:59;31.00;99.90
11087;DHT22;5597;47.588;9.642;2023-06-22T15:42:25;30.90;99.90
11087;DHT22;5597;47.588;9.642;2023-06-22T15:44:50;30.70;99.90
11087;DHT22;5597;47.588;9.642;2023-06-22T15:47:16;30.60;99.90
11087;DHT22;5597;47.588;9.642;2023-06-22T15:49:47;30.50;99.90